sensor_id;sensor_type;location;lat;lon;timestamp;pressure;altitude;pressure_sealevel;temperature;humidity
85897;BME280;76442;52.412;16.940;2024-03-02T00:05:09;100457.0;;;10.17;89.22
85897;BME280;76442;52.412;16.940;2024-03-02T00:20:09;100455.0;;;10.02;89.94
85897;BME280;76442;52.412;16.940;2024-03-02T00:35:09;100457.0;;;9.96;90.34
85897;BME280;76442;52.412;16.940;2024-03-02T00:50:09;100449.0;;;9.91;90.72
85897;BME280;76442;52.412;16.940;2024-03-02T01:05:09;100437.0;;;9.86;90.76
85897;BME280;76442;52.412;16.940;2024-03-02T01:20:09;100431.0;;;9.83;90.7
85897;BME280;76442;52.412;16.940;2024-03-02T01:35:09;100426.0;;;9.83;90.4
85897;BME280;76442;52.412;16.940;2024-03-02T02:20:09;100411.0;;;9.6;89.42
85897;BME280;76442;52.412;16.940;2024-03-02T02:35:09;100423.0;;;9.56;89.51
85897;BME280;76442;52.412;16.940;2024-03-02T02:50:10;100411.0;;;9.39;89.75
85897;BME280;76442;52.412;16.940;2024-03-02T03:05:10;100423.0;;;9.29;89.58
85897;BME280;76442;52.412;16.940;2024-03-02T03:20:09;100408.0;;;9.23;89.63
85897;BME280;76442;52.412;16.940;2024-03-02T04:35:09;100416.0;;;9.21;88.91
85897;BME280;76442;52.412;16.940;2024-03-02T04:50:10;100425.0;;;9.2;88.45
85897;BME280;76442;52.412;16.940;2024-03-02T05:10:09;100438.0;;;9.02;88.88
85897;BME280;76442;52.412;16.940;2024-03-02T05:25:09;100445.0;;;8.98;88.83
85897;BME280;76442;52.412;16.940;2024-03-02T05:40:09;100449.0;;;8.95;88.81
85897;BME280;76442;52.412;16.940;2024-03-02T06:40:10;100483.0;;;8.97;88.13
85897;BME280;76442;52.412;16.940;2024-03-02T06:55:09;100478.0;;;9.08;87.66
85897;BME280;76442;52.412;16.940;2024-03-02T07:10:09;100489.0;;;9.08;87.54
85897;BME280;76442;52.412;16.940;2024-03-02T07:25:09;100498.0;;;9.5;86.62
85897;BME280;76442;52.412;16.940;2024-03-02T07:40:09;100505.0;;;10.07;84.41
85897;BME280;76442;52.412;16.940;2024-03-02T07:55:09;100517.0;;;10.09;84.24
85897;BME280;76442;52.412;16.940;2024-03-02T08:10:09;100523.0;;;10.61;82.78
85897;BME280;76442;52.412;16.940;2024-03-02T08:25:09;100525.0;;;11.15;80.69
85897;BME280;76442;52.412;16.940;2024-03-02T08:50:09;100521.0;;;11.65;79.04
85897;BME280;76442;52.412;16.940;2024-03-02T09:20:09;100521.0;;;12.69;75.6
85897;BME280;76442;52.412;16.940;2024-03-02T09:35:09;100514.0;;;12.85;74.43
85897;BME280;76442;52.412;16.940;2024-03-02T09:50:09;100513.0;;;12.97;74.83
85897;BME280;76442;52.412;16.940;2024-03-02T10:05:09;100527.0;;;13.3;73.64
85897;BME280;76442;52.412;16.940;2024-03-02T10:25:09;100523.0;;;13.54;72.78
85897;BME280;76442;52.412;16.940;2024-03-02T10:40:10;100518.0;;;13.84;72.14
85897;BME280;76442;52.412;16.940;2024-03-02T10:55:09;100506.0;;;13.89;72.53
85897;BME280;76442;52.412;16.940;2024-03-02T11:10:10;100493.0;;;13.67;73.19
85897;BME280;76442;52.412;16.940;2024-03-02T11:25:09;100504.0;;;13.51;73.89
85897;BME280;76442;52.412;16.940;2024-03-02T11:40:09;100490.0;;;13.53;73.48
85897;BME280;76442;52.412;16.940;2024-03-02T11:55:09;100488.0;;;13.59;73.27
85897;BME280;76442;52.412;16.940;2024-03-02T12:10:09;100485.0;;;13.75;71.91
85897;BME280;76442;52.412;16.940;2024-03-02T12:25:09;100481.0;;;14.01;71.39
85897;BME280;76442;52.412;16.940;2024-03-02T12:40:09;100483.0;;;14.13;70.17
85897;BME280;76442;52.412;16.940;2024-03-02T12:55:09;100477.0;;;14.39;69.46
85897;BME280;76442;52.412;16.940;2024-03-02T13:10:09;100469.0;;;14.47;68.59
85897;BME280;76442;52.412;16.940;2024-03-02T13:25:09;100465.0;;;14.65;68.12
85897;BME280;76442;52.412;16.940;2024-03-02T13:40:09;100461.0;;;14.73;67.7
85897;BME280;76442;52.412;16.940;2024-03-02T13:55:09;100467.0;;;14.69;66.87
85897;BME280;76442;52.412;16.940;2024-03-02T14:10:09;100462.0;;;14.61;66.61
85897;BME280;76442;52.412;16.940;2024-03-02T14:25:09;100462.0;;;14.56;66.8
85897;BME280;76442;52.412;16.940;2024-03-02T14:40:09;100461.0;;;14.39;67.62
85897;BME280;76442;52.412;16.940;2024-03-02T14:55:09;100462.0;;;14.27;67.88
85897;BME280;76442;52.412;16.940;2024-03-02T15:10:09;100467.0;;;14.13;68.73
85897;BME280;76442;52.412;16.940;2024-03-02T15:30:09;100469.0;;;13.84;73.35
85897;BME280;76442;52.412;16.940;2024-03-02T15:45:09;100463.0;;;13.58;74.99
85897;BME280;76442;52.412;16.940;2024-03-02T16:00:09;100468.0;;;13.26;75.88
85897;BME280;76442;52.412;16.940;2024-03-02T16:20:09;100470.0;;;12.99;76.56
85897;BME280;76442;52.412;16.940;2024-03-02T16:35:09;100471.0;;;12.87;76.94
85897;BME280;76442;52.412;16.940;2024-03-02T16:50:09;100477.0;;;12.75;77.45
85897;BME280;76442;52.412;16.940;2024-03-02T17:10:09;100488.0;;;12.65;78.41
85897;BME280;76442;52.412;16.940;2024-03-02T17:25:09;100487.0;;;12.52;79.13
85897;BME280;76442;52.412;16.940;2024-03-02T17:40:09;100491.0;;;12.35;79.82
85897;BME280;76442;52.412;16.940;2024-03-02T17:55:09;100493.0;;;12.11;80.08
85897;BME280;76442;52.412;16.940;2024-03-02T18:10:09;100507.0;;;11.9;80.62
85897;BME280;76442;52.412;16.940;2024-03-02T18:25:09;100514.0;;;11.64;81.28
85897;BME280;76442;52.412;16.940;2024-03-02T18:40:09;100518.0;;;11.4;81.72
85897;BME280;76442;52.412;16.940;2024-03-02T18:55:09;100522.0;;;11.18;82.2
85897;BME280;76442;52.412;16.940;2024-03-02T19:30:09;100522.0;;;10.68;83.23
85897;BME280;76442;52.412;16.940;2024-03-02T20:20:09;100531.0;;;10.41;83.97
85897;BME280;76442;52.412;16.940;2024-03-02T20:40:09;100533.0;;;10.36;84.12
85897;BME280;76442;52.412;16.940;2024-03-02T20:55:09;100542.0;;;10.36;84.0
85897;BME280;76442;52.412;16.940;2024-03-02T21:10:09;100542.0;;;10.36;84.08
85897;BME280;76442;52.412;16.940;2024-03-02T21:25:09;100547.0;;;10.32;84.29
85897;BME280;76442;52.412;16.940;2024-03-02T21:45:09;100550.0;;;10.34;84.19
85897;BME280;76442;52.412;16.940;2024-03-02T22:00:10;100557.0;;;10.24;84.88
85897;BME280;76442;52.412;16.940;2024-03-02T22:15:10;100555.0;;;10.13;85.65
85897;BME280;76442;52.412;16.940;2024-03-02T22:30:09;100553.0;;;10.08;85.68
85897;BME280;76442;52.412;16.940;2024-03-02T22:45:10;100552.0;;;10.0;86.63
85897;BME280;76442;52.412;16.940;2024-03-02T23:05:09;100550.0;;;9.75;87.81
85897;BME280;76442;52.412;16.940;2024-03-02T23:20:09;100547.0;;;9.65;87.92
85897;BME280;76442;52.412;16.940;2024-03-02T23:35:09;100534.0;;;9.61;87.79
85897;BME280;76442;52.412;16.940;2024-03-02T23:50:09;100523.0;;;9.58;87.27
